Time;durP1;ratioP1;P1;durP2;ratioP2;P2;SDS_P1;SDS_P2;PMS_P1;PMS_P2;Temp;Humidity;BMP_temperature;BMP_pressure;BME280_temperature;BME280_humidity;BME280_pressure;Samples;Min_cycle;Max_cycle;Signal;HPM_P1;HPM_P2
2022/09/02 00:01:27;;;;;;;6.45;4.18;;;12.10;99.90;;;;;;5026077;28;20069;-79
2022/09/02 00:04:01;;;;;;;6.95;3.78;;;12.00;99.90;;;;;;5023748;28;20108;-79
2022/09/02 00:06:28;;;;;;;4.65;3.72;;;12.00;99.90;;;;;;5025544;28;20036;-79
2022/09/02 00:08:54;;;;;;;5.47;4.15;;;12.00;99.90;;;;;;5023911;28;20101;-79
2022/09/02 00:11:24;;;;;;;7.55;4.50;;;12.00;99.90;;;;;;5025488;28;20028;-79
2022/09/02 00:13:50;;;;;;;8.63;4.10;;;11.90;99.90;;;;;;5026367;28;20111;-79
2022/09/02 00:16:16;;;;;;;4.35;3.58;;;11.90;99.90;;;;;;5025780;28;20041;-79
2022/09/02 00:18:43;;;;;;;6.57;4.05;;;11.90;99.90;;;;;;5025744;28;20029;-79
2022/09/02 00:21:11;;;;;;;9.77;4.80;;;11.90;99.90;;;;;;5025354;28;20033;-79
2022/09/02 00:23:37;;;;;;;6.70;4.90;;;11.80;99.90;;;;;;5025761;28;20029;-79
2022/09/02 00:26:03;;;;;;;14.45;8.57;;;11.80;99.90;;;;;;5026257;28;20033;-79
2022/09/02 00:28:29;;;;;;;9.30;5.32;;;11.80;99.90;;;;;;5026172;28;20025;-79
2022/09/02 00:30:54;;;;;;;5.93;4.60;;;11.80;99.90;;;;;;5026160;28;20033;-79
2022/09/02 00:33:20;;;;;;;7.97;4.85;;;11.70;99.90;;;;;;5025638;28;20026;-79
2022/09/02 00:35:46;;;;;;;7.30;5.18;;;11.70;99.90;;;;;;5025719;28;20029;-79
2022/09/02 00:38:12;;;;;;;5.20;4.43;;;11.70;99.90;;;;;;5025267;28;20179;-79
2022/09/02 00:40:38;;;;;;;6.20;4.53;;;11.70;99.90;;;;;;5024954;28;20083;-79
2022/09/02 00:43:07;;;;;;;6.47;4.38;;;11.70;99.90;;;;;;5025645;28;20033;-79
2022/09/02 00:45:32;;;;;;;9.18;5.32;;;11.60;99.90;;;;;;5026170;28;20032;-80
2022/09/02 00:47:58;;;;;;;7.00;4.70;;;11.70;99.90;;;;;;5025632;28;20457;-79
2022/09/02 00:50:28;;;;;;;7.18;4.47;;;11.60;99.90;;;;;;5025329;28;20116;-79
2022/09/02 00:52:59;;;;;;;8.20;4.75;;;11.60;99.90;;;;;;5025497;28;20486;-79
2022/09/02 00:55:34;;;;;;;4.85;4.35;;;11.60;99.90;;;;;;5025296;28;20521;-79
2022/09/02 00:58:13;;;;;;;8.32;4.82;;;11.60;99.90;;;;;;5026018;28;20077;-79
2022/09/02 01:00:43;;;;;;;8.27;4.47;;;11.60;99.90;;;;;;5027571;28;20072;-79
2022/09/02 01:03:14;;;;;;;7.30;4.63;;;11.60;99.90;;;;;;5028822;28;20036;-79
2022/09/02 01:05:44;;;;;;;7.53;4.45;;;11.60;99.90;;;;;;5027710;28;20026;-79
2022/09/02 01:08:12;;;;;;;7.82;5.10;;;11.60;99.90;;;;;;5028698;28;20086;-79
2022/09/02 01:10:39;;;;;;;6.53;4.97;;;11.50;99.90;;;;;;5028286;28;20021;-79
2022/09/02 01:13:11;;;;;;;6.18;4.72;;;11.50;99.90;;;;;;5028705;28;20132;-79
2022/09/02 01:15:43;;;;;;;6.60;4.63;;;11.50;99.90;;;;;;5028828;28;20040;-79
2022/09/02 01:18:12;;;;;;;8.43;5.22;;;11.40;99.90;;;;;;5028509;28;20383;-79
2022/09/02 01:20:37;;;;;;;9.20;5.03;;;11.40;99.90;;;;;;5028379;28;20034;-79
2022/09/02 01:23:03;;;;;;;9.95;4.85;;;11.40;99.90;;;;;;5028468;28;20018;-79
2022/09/02 01:25:32;;;;;;;7.20;4.40;;;11.40;99.90;;;;;;5029007;28;20521;-79
2022/09/02 01:28:13;;;;;;;10.60;5.28;;;11.40;99.90;;;;;;5028358;28;20108;-79
2022/09/02 01:30:43;;;;;;;9.18;5.80;;;11.40;99.90;;;;;;5027370;28;20025;-79
2022/09/02 01:33:09;;;;;;;8.10;5.20;;;11.40;99.90;;;;;;5028159;28;20021;-79
2022/09/02 01:35:36;;;;;;;5.95;4.60;;;11.30;99.90;;;;;;5028354;28;20018;-79
2022/09/02 01:38:03;;;;;;;9.27;4.97;;;11.30;99.90;;;;;;5028495;28;20490;-79
2022/09/02 01:40:29;;;;;;;5.78;4.82;;;11.30;99.90;;;;;;5028429;28;20033;-79
2022/09/02 01:43:11;;;;;;;8.52;5.70;;;11.30;99.90;;;;;;5027895;28;20021;-79
2022/09/02 01:45:38;;;;;;;9.10;4.93;;;11.30;99.90;;;;;;5028056;28;20355;-79
2022/09/02 01:48:05;;;;;;;7.65;5.35;;;11.30;99.90;;;;;;5027898;28;20041;-79
2022/09/02 01:50:31;;;;;;;9.32;5.38;;;11.30;99.90;;;;;;5028171;28;20022;-79
2022/09/02 01:53:00;;;;;;;8.13;5.50;;;11.30;99.90;;;;;;5027949;28;20037;-79
2022/09/02 01:55:26;;;;;;;8.80;5.50;;;11.20;99.90;;;;;;5027332;28;20099;-79
2022/09/02 01:57:51;;;;;;;6.22;5.40;;;11.20;99.90;;;;;;5028006;28;20581;-79
2022/09/02 02:00:17;;;;;;;8.63;5.70;;;11.20;99.90;;;;;;5027602;28;20063;-79
2022/09/02 02:02:43;;;;;;;8.60;5.35;;;11.20;99.90;;;;;;5027587;28;20040;-79
2022/09/02 02:05:09;;;;;;;7.28;5.50;;;11.20;99.90;;;;;;5027924;28;20032;-79
2022/09/02 02:07:35;;;;;;;10.13;5.60;;;11.20;99.90;;;;;;5027760;28;20427;-79
2022/09/02 02:10:01;;;;;;;7.18;5.30;;;11.10;99.90;;;;;;5026564;28;20056;-79
2022/09/02 02:12:27;;;;;;;6.78;5.15;;;11.20;99.90;;;;;;5027554;28;20371;-79
2022/09/02 02:14:52;;;;;;;5.70;5.20;;;11.20;99.90;;;;;;5027546;28;20145;-79
2022/09/02 02:17:18;;;;;;;10.65;5.32;;;11.20;99.90;;;;;;5027775;28;20104;-79
2022/09/02 02:19:43;;;;;;;6.28;5.22;;;11.10;99.90;;;;;;5026895;28;20036;-79
2022/09/02 02:22:10;;;;;;;6.35;5.25;;;11.10;99.90;;;;;;5027558;28;20045;-79
2022/09/02 02:24:35;;;;;;;6.70;5.07;;;11.10;99.90;;;;;;5027254;28;20031;-79
2022/09/02 02:27:01;;;;;;;7.90;4.90;;;11.10;99.90;;;;;;5027163;28;20029;-79
2022/09/02 02:29:27;;;;;;;6.78;5.05;;;11.10;99.90;;;;;;5027606;28;20101;-79
2022/09/02 02:31:53;;;;;;;7.95;5.20;;;11.10;99.90;;;;;;5027723;28;20029;-79
2022/09/02 02:34:19;;;;;;;7.32;4.78;;;11.10;99.90;;;;;;5027474;28;20025;-79
2022/09/02 02:36:45;;;;;;;6.07;4.65;;;11.10;99.90;;;;;;5027568;28;20027;-79
2022/09/02 02:39:11;;;;;;;6.40;4.63;;;11.10;99.90;;;;;;5027208;28;20037;-79
2022/09/02 02:41:39;;;;;;;6.38;4.95;;;11.10;99.90;;;;;;5026846;28;20040;-79
2022/09/02 02:44:05;;;;;;;5.13;4.63;;;11.10;99.90;;;;;;5025630;28;20044;-79
2022/09/02 02:46:32;;;;;;;9.15;4.72;;;11.00;99.90;;;;;;5026746;28;20076;-79
2022/09/02 02:48:59;;;;;;;7.40;4.53;;;11.00;99.90;;;;;;5027054;28;20022;-79
2022/09/02 02:51:25;;;;;;;5.65;5.00;;;11.00;99.90;;;;;;5027553;28;20477;-79
2022/09/02 02:53:50;;;;;;;7.25;5.05;;;11.00;99.90;;;;;;5013810;28;20037;-79
2022/09/02 02:56:16;;;;;;;6.80;5.20;;;11.00;99.90;;;;;;5027514;28;20067;-79
2022/09/02 02:58:42;;;;;;;6.45;5.25;;;11.00;99.90;;;;;;5026806;28;20037;-79
2022/09/02 03:01:07;;;;;;;8.32;5.25;;;11.00;99.90;;;;;;5027175;28;20465;-79
2022/09/02 03:03:33;;;;;;;8.13;5.18;;;10.90;99.90;;;;;;5026761;28;20029;-79
2022/09/02 03:06:00;;;;;;;7.90;5.47;;;10.90;99.90;;;;;;5027463;28;20100;-78
2022/09/02 03:08:26;;;;;;;6.63;5.32;;;10.90;99.90;;;;;;5026382;28;20036;-79
2022/09/02 03:10:55;;;;;;;7.30;6.00;;;10.90;99.90;;;;;;5026609;28;20036;-79
2022/09/02 03:13:24;;;;;;;6.95;5.32;;;10.90;99.90;;;;;;5026947;28;20033;-79
2022/09/02 03:15:51;;;;;;;10.00;5.50;;;10.80;99.90;;;;;;5026635;28;20072;-78
2022/09/02 03:18:18;;;;;;;10.35;5.50;;;10.80;99.90;;;;;;5026694;28;20036;-79
2022/09/02 03:20:44;;;;;;;5.95;5.30;;;10.80;99.90;;;;;;5026302;28;20044;-79
2022/09/02 03:23:11;;;;;;;7.43;5.25;;;10.80;99.90;;;;;;5026124;28;20029;-79
2022/09/02 03:25:37;;;;;;;6.07;4.80;;;10.80;99.90;;;;;;5026662;28;20026;-79
2022/09/02 03:28:03;;;;;;;6.65;5.20;;;10.70;99.90;;;;;;5026361;28;20083;-79
2022/09/02 03:30:30;;;;;;;7.32;4.88;;;10.70;99.90;;;;;;5026551;28;20463;-79
2022/09/02 03:32:58;;;;;;;6.97;5.20;;;10.70;99.90;;;;;;5026825;28;20029;-79
2022/09/02 03:35:25;;;;;;;9.15;5.32;;;10.70;99.90;;;;;;5026169;28;20568;-79
2022/09/02 03:37:51;;;;;;;8.80;5.20;;;10.70;99.90;;;;;;5026348;28;20136;-79
2022/09/02 03:40:21;;;;;;;7.47;5.43;;;10.70;99.90;;;;;;5026348;28;20024;-79
2022/09/02 03:42:46;;;;;;;7.82;5.30;;;10.70;99.90;;;;;;5026061;28;20187;-79
2022/09/02 03:45:14;;;;;;;8.43;5.43;;;10.60;99.90;;;;;;5025974;28;20502;-79
2022/09/02 03:47:43;;;;;;;6.72;4.90;;;10.60;99.90;;;;;;5026029;28;20127;-79
2022/09/02 03:50:09;;;;;;;8.55;5.55;;;10.60;99.90;;;;;;5026783;28;20059;-79
2022/09/02 03:52:35;;;;;;;6.65;5.13;;;10.60;99.90;;;;;;5025927;28;20076;-79
2022/09/02 03:55:03;;;;;;;10.25;5.25;;;10.60;99.90;;;;;;5025627;28;20518;-79
2022/09/02 03:57:29;;;;;;;7.82;5.25;;;10.60;99.90;;;;;;5026075;28;20449;-79
2022/09/02 03:59:55;;;;;;;10.40;5.20;;;10.60;99.90;;;;;;5024567;28;20030;-79
2022/09/02 04:02:20;;;;;;;9.10;5.30;;;10.50;99.90;;;;;;5026501;28;20162;-79
2022/09/02 04:04:46;;;;;;;7.53;5.35;;;10.50;99.90;;;;;;5025849;28;20390;-79
2022/09/02 04:07:12;;;;;;;7.68;5.50;;;10.60;99.90;;;;;;5026137;28;20053;-79
2022/09/02 04:09:37;;;;;;;6.22;5.40;;;10.60;99.90;;;;;;5025968;28;20403;-79
2022/09/02 04:12:04;;;;;;;7.38;5.70;;;10.50;99.90;;;;;;5026782;28;20033;-79
2022/09/02 04:14:30;;;;;;;9.20;6.00;;;10.50;99.90;;;;;;5026194;28;20034;-79
2022/09/02 04:16:55;;;;;;;8.52;5.80;;;10.50;99.90;;;;;;5026308;28;20033;-79
2022/09/02 04:19:21;;;;;;;7.30;5.53;;;10.50;99.90;;;;;;5025668;28;20029;-79
2022/09/02 04:21:47;;;;;;;7.00;5.65;;;10.40;99.90;;;;;;5026079;28;20447;-79
2022/09/02 04:24:13;;;;;;;7.18;5.82;;;10.40;99.90;;;;;;5026298;28;20025;-79
2022/09/02 04:26:38;;;;;;;10.52;5.85;;;10.50;99.90;;;;;;5026122;28;20022;-79
2022/09/02 04:29:06;;;;;;;9.75;6.13;;;10.40;99.90;;;;;;5026538;28;20075;-79
2022/09/02 04:31:32;;;;;;;8.93;6.30;;;10.40;99.90;;;;;;5025714;28;20037;-79
2022/09/02 04:33:58;;;;;;;10.73;7.43;;;10.40;99.90;;;;;;5028157;28;20033;-79
2022/09/02 04:36:25;;;;;;;8.18;6.25;;;10.40;99.90;;;;;;5027917;28;20029;-79
2022/09/02 04:38:52;;;;;;;9.15;6.60;;;10.40;99.90;;;;;;5029787;28;20530;-79
2022/09/02 04:41:21;;;;;;;9.10;6.43;;;10.40;99.90;;;;;;5029915;28;20038;-79
2022/09/02 04:43:48;;;;;;;8.70;6.70;;;10.40;99.90;;;;;;5029518;28;20025;-79
2022/09/02 04:46:15;;;;;;;7.22;6.53;;;10.40;99.90;;;;;;5029548;28;20037;-79
2022/09/02 04:48:41;;;;;;;8.30;6.78;;;10.40;99.90;;;;;;5029351;28;20441;-79
2022/09/02 04:51:11;;;;;;;7.35;6.35;;;10.40;99.90;;;;;;5029128;28;20037;-79
2022/09/02 04:53:37;;;;;;;11.23;7.40;;;10.30;99.90;;;;;;5029507;28;20056;-79
2022/09/02 04:56:05;;;;;;;9.13;7.43;;;10.30;99.90;;;;;;5028029;28;20467;-79
2022/09/02 04:58:31;;;;;;;11.20;6.70;;;10.30;99.90;;;;;;5029329;28;20483;-79
2022/09/02 05:00:57;;;;;;;10.60;7.57;;;10.30;99.90;;;;;;5029364;28;20033;-79
2022/09/02 05:03:23;;;;;;;12.77;7.90;;;10.30;99.90;;;;;;5029408;28;20474;-79
2022/09/02 05:06:01;;;;;;;9.53;7.27;;;10.30;99.90;;;;;;5033125;28;20028;-79
2022/09/02 05:08:26;;;;;;;11.10;7.97;;;10.40;99.90;;;;;;5046549;28;20021;-79
2022/09/02 05:10:52;;;;;;;13.17;7.77;;;10.40;99.90;;;;;;5040998;28;20033;-79
2022/09/02 05:13:18;;;;;;;12.80;8.23;;;10.40;99.90;;;;;;5030472;28;20444;-79
2022/09/02 05:15:44;;;;;;;14.57;7.50;;;10.40;99.90;;;;;;5035353;28;20108;-78
2022/09/02 05:18:11;;;;;;;10.50;7.40;;;10.40;99.90;;;;;;5036096;28;20371;-79
2022/09/02 05:20:42;;;;;;;10.07;8.43;;;10.40;99.90;;;;;;5028623;28;20112;-78
2022/09/02 05:23:10;;;;;;;9.77;8.15;;;10.50;99.90;;;;;;5028837;28;20017;-78
2022/09/02 05:25:38;;;;;;;9.95;7.97;;;10.50;99.90;;;;;;5028626;28;20020;-79
2022/09/02 05:28:09;;;;;;;9.98;7.68;;;10.50;99.90;;;;;;5028683;28;20024;-79
2022/09/02 05:30:37;;;;;;;11.35;7.82;;;10.60;99.90;;;;;;5028298;28;20475;-79
2022/09/02 05:33:03;;;;;;;11.43;8.25;;;10.70;99.90;;;;;;5029108;28;20532;-79
2022/09/02 05:35:29;;;;;;;8.93;7.32;;;10.70;99.90;;;;;;5028035;28;20108;-78
2022/09/02 05:37:55;;;;;;;14.65;7.75;;;10.80;99.90;;;;;;5028990;28;20570;-79
2022/09/02 05:40:21;;;;;;;11.45;7.78;;;10.80;99.90;;;;;;5028577;28;20190;-79
2022/09/02 05:42:47;;;;;;;13.57;7.72;;;10.90;99.90;;;;;;5027834;28;20025;-79
2022/09/02 05:45:13;;;;;;;10.77;8.05;;;10.90;99.90;;;;;;5027794;28;20025;-79
2022/09/02 05:47:39;;;;;;;10.70;7.60;;;11.00;99.90;;;;;;5028399;28;20423;-79
2022/09/02 05:50:05;;;;;;;10.63;7.17;;;11.10;99.90;;;;;;5028930;28;20097;-78
2022/09/02 05:52:31;;;;;;;11.73;7.22;;;11.10;99.90;;;;;;5034412;28;20037;-78
2022/09/02 05:54:57;;;;;;;12.95;7.25;;;11.20;99.90;;;;;;5028553;28;20029;-79
2022/09/02 05:57:24;;;;;;;11.65;7.82;;;11.20;99.90;;;;;;5027993;28;20653;-78
2022/09/02 05:59:54;;;;;;;18.23;8.55;;;11.30;99.90;;;;;;5040956;28;20626;-79
2022/09/02 06:02:22;;;;;;;9.50;7.63;;;11.40;99.90;;;;;;5020771;28;20466;-79
2022/09/02 06:04:50;;;;;;;11.50;7.10;;;11.50;99.90;;;;;;5027501;28;20104;-79
2022/09/02 06:07:18;;;;;;;13.98;7.13;;;11.50;99.90;;;;;;5028054;28;20017;-79
2022/09/02 06:09:44;;;;;;;9.35;6.70;;;11.60;99.90;;;;;;5027519;28;20032;-79
2022/09/02 06:12:11;;;;;;;13.55;7.80;;;11.70;99.90;;;;;;5027629;28;20136;-79
2022/09/02 06:14:37;;;;;;;9.73;6.93;;;11.80;99.90;;;;;;5027590;28;20387;-79
2022/09/02 06:17:04;;;;;;;9.35;6.57;;;11.90;99.90;;;;;;5027910;28;20033;-79
2022/09/02 06:19:31;;;;;;;9.23;6.10;;;12.00;99.90;;;;;;5035446;28;20041;-79
2022/09/02 06:21:59;;;;;;;14.45;6.43;;;12.10;99.90;;;;;;5029028;28;20390;-79
2022/09/02 06:24:26;;;;;;;8.73;6.10;;;12.20;99.90;;;;;;5027057;28;20052;-79
2022/09/02 06:26:52;;;;;;;8.93;6.25;;;12.30;99.90;;;;;;5027357;28;20037;-79
2022/09/02 06:29:18;;;;;;;9.55;6.03;;;12.40;99.90;;;;;;5027484;28;20017;-79
2022/09/02 06:31:46;;;;;;;7.85;5.80;;;12.50;99.90;;;;;;5027986;28;20053;-79
2022/09/02 06:34:14;;;;;;;11.18;6.07;;;12.60;99.90;;;;;;5027167;28;20072;-79
2022/09/02 06:36:42;;;;;;;10.52;5.95;;;12.70;99.90;;;;;;5037779;28;20509;-79
2022/09/02 06:39:11;;;;;;;9.60;5.80;;;12.80;99.90;;;;;;5029453;28;20038;-79
2022/09/02 06:41:38;;;;;;;9.07;5.97;;;12.90;99.90;;;;;;5024723;28;20075;-79
2022/09/02 06:44:06;;;;;;;8.50;6.07;;;12.90;99.90;;;;;;5027226;28;20330;-79
2022/09/02 06:46:35;;;;;;;7.97;5.32;;;13.00;99.90;;;;;;5026851;28;20128;-79
2022/09/02 06:49:02;;;;;;;5.95;4.70;;;13.10;99.90;;;;;;5027131;28;20503;-79
2022/09/02 06:51:37;;;;;;;8.05;5.05;;;13.20;99.90;;;;;;5026925;28;20579;-79
2022/09/02 06:54:05;;;;;;;7.63;4.38;;;13.30;99.90;;;;;;5027128;28;20104;-79
2022/09/02 06:56:31;;;;;;;6.50;4.30;;;13.40;99.90;;;;;;5025892;28;20057;-79
2022/09/02 06:58:57;;;;;;;7.60;4.28;;;13.50;99.90;;;;;;5026907;28;20025;-79
2022/09/02 07:01:26;;;;;;;6.63;4.43;;;13.50;99.90;;;;;;5026833;28;20041;-79
2022/09/02 07:06:43;;;;;;;5.30;3.80;;;13.70;99.90;;;;;;5017721;28;20037;-79
2022/09/02 07:09:15;;;;;;;6.45;3.92;;;13.70;99.90;;;;;;5027041;28;20025;-79
2022/09/02 07:11:41;;;;;;;5.93;3.80;;;13.80;99.90;;;;;;5027189;28;20073;-79
2022/09/02 07:14:06;;;;;;;6.18;3.50;;;13.80;99.90;;;;;;5026267;28;20108;-79
2022/09/02 07:16:36;;;;;;;6.40;3.78;;;13.90;99.90;;;;;;5026432;28;20033;-79
2022/09/02 07:19:02;;;;;;;6.80;4.25;;;14.00;99.90;;;;;;5026539;28;20128;-80
2022/09/02 07:21:30;;;;;;;6.43;3.78;;;14.00;99.90;;;;;;5027003;28;20041;-79
2022/09/02 07:23:58;;;;;;;6.43;3.92;;;14.20;99.90;;;;;;5026205;28;20029;-79
2022/09/02 07:26:25;;;;;;;6.07;3.80;;;14.30;99.90;;;;;;5026689;28;20127;-79
2022/09/02 07:28:51;;;;;;;7.53;3.58;;;14.30;99.90;;;;;;5026630;28;20116;-80
2022/09/02 07:31:17;;;;;;;5.05;3.45;;;14.30;99.90;;;;;;5025884;28;20523;-79
2022/09/02 07:33:43;;;;;;;5.32;3.40;;;14.40;99.90;;;;;;5026294;28;20554;-80
2022/09/02 07:36:10;;;;;;;6.05;3.33;;;14.50;99.90;;;;;;5025861;28;20071;-79
2022/09/02 07:38:35;;;;;;;8.40;3.67;;;14.60;99.90;;;;;;5026120;28;20041;-79
2022/09/02 07:41:02;;;;;;;8.35;3.40;;;14.70;99.90;;;;;;5026328;28;20473;-79
2022/09/02 07:43:30;;;;;;;4.47;3.17;;;14.80;99.90;;;;;;5026288;28;20517;-79
2022/09/02 07:45:56;;;;;;;4.60;3.13;;;14.90;99.90;;;;;;5029509;28;20117;-79
2022/09/02 07:48:23;;;;;;;5.00;3.28;;;14.90;99.90;;;;;;5025861;28;20022;-80
2022/09/02 07:50:48;;;;;;;5.13;2.92;;;14.90;99.90;;;;;;5025794;28;20034;-79
2022/09/02 07:53:15;;;;;;;9.52;3.60;;;15.00;99.90;;;;;;5026022;28;20021;-79
2022/09/02 07:55:41;;;;;;;5.90;3.15;;;15.10;99.90;;;;;;5026077;28;20124;-79
2022/09/02 07:58:08;;;;;;;4.78;2.92;;;15.10;99.90;;;;;;5026232;28;20029;-79
2022/09/02 08:00:34;;;;;;;7.55;3.03;;;15.10;99.90;;;;;;5024907;28;20486;-79
2022/09/02 08:03:00;;;;;;;6.07;3.03;;;15.20;99.90;;;;;;5025837;28;20132;-79
2022/09/02 08:05:26;;;;;;;7.72;3.38;;;15.30;99.90;;;;;;5026601;28;20036;-79
2022/09/02 08:07:52;;;;;;;6.72;2.75;;;15.40;99.90;;;;;;5025756;28;20033;-79
2022/09/02 08:10:19;;;;;;;4.35;2.80;;;15.50;99.90;;;;;;5029642;28;20183;-79
2022/09/02 08:12:46;;;;;;;5.10;2.53;;;15.60;99.90;;;;;;5030231;28;20060;-79
2022/09/02 08:15:13;;;;;;;6.07;2.45;;;15.60;99.90;;;;;;5030187;28;20051;-79
2022/09/02 08:17:39;;;;;;;4.97;2.80;;;15.70;99.90;;;;;;5029795;28;20037;-79
2022/09/02 08:20:10;;;;;;;4.80;2.53;;;15.80;99.90;;;;;;5030096;28;20036;-79
2022/09/02 08:22:36;;;;;;;4.63;2.55;;;15.90;99.90;;;;;;5029488;28;20033;-79
2022/09/02 08:25:02;;;;;;;3.65;2.75;;;16.00;99.90;;;;;;5029123;28;20029;-80
2022/09/02 08:27:28;;;;;;;6.88;2.30;;;16.10;99.90;;;;;;5028179;28;20037;-80
2022/09/02 08:29:53;;;;;;;4.63;2.00;;;16.20;99.90;;;;;;5029413;28;20018;-80
2022/09/02 08:32:19;;;;;;;5.07;2.20;;;16.20;99.90;;;;;;5030160;28;20079;-80
2022/09/02 08:34:45;;;;;;;4.05;2.00;;;16.30;99.90;;;;;;5029056;28;20472;-80
2022/09/02 08:37:10;;;;;;;4.82;2.17;;;16.40;99.90;;;;;;5029698;28;20128;-79
2022/09/02 08:39:37;;;;;;;4.82;1.83;;;16.50;99.90;;;;;;5029572;28;20043;-80
2022/09/02 08:42:23;;;;;;;2.85;1.83;;;16.60;99.90;;;;;;5029371;28;20025;-79
2022/09/02 08:44:54;;;;;;;3.58;1.85;;;16.80;99.90;;;;;;5029026;28;20493;-80
2022/09/02 08:47:24;;;;;;;5.68;2.13;;;16.90;99.90;;;;;;5029583;28;20029;-79
2022/09/02 08:49:54;;;;;;;6.07;1.90;;;17.00;99.90;;;;;;5029323;28;20112;-80
2022/09/02 08:52:30;;;;;;;3.75;1.65;;;17.10;99.90;;;;;;5028920;28;20072;-80
2022/09/02 08:54:56;;;;;;;5.05;1.98;;;17.20;99.90;;;;;;5029524;28;20087;-79
2022/09/02 08:57:26;;;;;;;6.15;2.10;;;17.30;99.90;;;;;;5028656;28;20059;-80
2022/09/02 08:59:54;;;;;;;2.88;1.90;;;17.40;99.90;;;;;;5029026;28;20087;-80
2022/09/02 09:02:44;;;;;;;3.95;2.00;;;17.60;99.90;;;;;;5028897;28;20399;-79
2022/09/02 09:05:16;;;;;;;5.60;1.70;;;17.70;99.90;;;;;;5028804;28;20116;-80
2022/09/02 09:08:03;;;;;;;5.28;1.60;;;17.90;99.90;;;;;;5028698;28;20469;-80
2022/09/02 09:10:37;;;;;;;4.70;1.77;;;18.00;99.90;;;;;;5028700;28;20475;-79
2022/09/02 09:13:30;;;;;;;6.07;1.90;;;18.20;99.90;;;;;;5029440;28;20025;-80
2022/09/02 09:16:32;;;;;;;2.65;1.48;;;18.50;99.90;;;;;;5028998;28;20826;-80
2022/09/02 09:19:17;;;;;;;6.13;1.80;;;18.60;99.90;;;;;;5027897;28;20112;-80
2022/09/02 09:21:43;;;;;;;1.83;1.40;;;18.80;99.90;;;;;;5028230;28;20044;-80
2022/09/02 09:24:24;;;;;;;3.33;1.60;;;18.90;99.90;;;;;;5028083;28;20018;-80
2022/09/02 09:26:51;;;;;;;3.03;1.40;;;19.00;99.90;;;;;;5028474;28;20029;-80
2022/09/02 09:29:17;;;;;;;4.97;1.45;;;19.20;99.90;;;;;;5028048;28;20086;-80
2022/09/02 09:31:52;;;;;;;3.67;1.20;;;19.30;99.90;;;;;;5027008;28;20021;-80
2022/09/02 09:34:17;;;;;;;4.85;1.60;;;19.40;99.90;;;;;;5027801;28;20028;-80
2022/09/02 09:36:50;;;;;;;2.97;1.63;;;19.60;99.90;;;;;;5028059;28;20575;-80
2022/09/02 09:39:26;;;;;;;6.25;1.92;;;19.80;99.90;;;;;;5028591;28;20049;-80
2022/09/02 09:41:59;;;;;;;4.40;1.40;;;20.00;99.90;;;;;;5028302;28;20025;-80
2022/09/02 09:44:36;;;;;;;3.30;1.30;;;20.10;99.90;;;;;;5029155;28;20541;-79
2022/09/02 09:47:05;;;;;;;3.95;1.42;;;20.20;99.90;;;;;;5028845;28;20382;-80
2022/09/02 09:49:32;;;;;;;3.90;1.65;;;20.30;99.90;;;;;;5028766;28;20079;-80
2022/09/02 09:51:59;;;;;;;3.22;1.48;;;20.30;99.90;;;;;;5027900;28;20032;-79
2022/09/02 09:54:25;;;;;;;3.22;1.40;;;20.50;99.90;;;;;;5028631;28;20021;-79
2022/09/02 09:56:52;;;;;;;8.23;3.10;;;20.50;99.90;;;;;;5028029;28;20103;-79
2022/09/02 09:59:33;;;;;;;7.85;2.58;;;20.60;99.90;;;;;;5028320;28;20159;-80
2022/09/02 10:01:58;;;;;;;2.92;1.38;;;20.80;99.90;;;;;;5026280;28;20545;-79
2022/09/02 10:04:29;;;;;;;4.35;1.52;;;21.00;99.90;;;;;;5027858;28;20032;-79
2022/09/02 10:06:55;;;;;;;6.38;1.50;;;21.00;99.90;;;;;;5028598;28;20025;-79
2022/09/02 10:09:33;;;;;;;6.78;1.40;;;21.20;99.90;;;;;;5027932;28;20874;-79
2022/09/02 10:12:11;;;;;;;4.00;1.48;;;21.20;99.90;;;;;;5027708;28;20033;-79
2022/09/02 10:14:49;;;;;;;4.75;1.40;;;21.10;99.90;;;;;;5027818;28;20037;-79
2022/09/02 10:17:34;;;;;;;5.30;1.40;;;21.10;99.90;;;;;;5028326;28;20033;-79
2022/09/02 10:20:24;;;;;;;;;;;21.10;99.90;;;;;;5028366;28;20029;-79
2022/09/02 10:23:10;;;;;;;3.03;1.27;;;21.40;99.90;;;;;;5042780;28;19991;-79
2022/09/02 10:26:01;;;;;;;4.70;1.52;;;21.50;99.90;;;;;;5025820;28;20558;-79
2022/09/02 10:28:56;;;;;;;2.30;1.20;;;21.60;99.90;;;;;;5027797;28;20033;-79
2022/09/02 10:31:31;;;;;;;6.85;1.70;;;21.60;99.90;;;;;;5026633;28;20025;-80
2022/09/02 10:34:05;;;;;;;6.53;1.45;;;21.70;99.90;;;;;;5027109;28;20029;-79
2022/09/02 10:36:43;;;;;;;2.30;1.25;;;21.70;99.90;;;;;;5027139;28;20441;-80
2022/09/02 10:39:17;;;;;;;3.95;1.20;;;21.70;99.90;;;;;;5027045;28;20625;-80
2022/09/02 10:41:47;;;;;;;6.20;1.33;;;21.60;99.90;;;;;;5027161;28;20026;-80
2022/09/02 10:44:24;;;;;;;3.38;1.20;;;21.60;99.90;;;;;;5025212;28;20437;-79
2022/09/02 10:47:30;;;;;;;3.47;1.40;;;21.50;99.90;;;;;;5027846;28;20022;-80
2022/09/02 10:50:07;;;;;;;3.25;1.50;;;21.50;99.90;;;;;;5025281;28;20116;-79
2022/09/02 10:53:04;;;;;;;2.88;1.58;;;21.70;99.90;;;;;;5026017;28;20378;-79
2022/09/02 10:55:41;;;;;;;3.70;1.58;;;21.80;99.90;;;;;;5025753;28;20032;-79
2022/09/02 10:58:13;;;;;;;2.30;1.50;;;21.80;99.90;;;;;;5027026;28;20104;-80
2022/09/02 11:00:42;;;;;;;4.20;1.67;;;22.00;99.90;;;;;;5026371;28;20083;-80
2022/09/02 11:03:27;;;;;;;4.40;1.20;;;22.00;99.90;;;;;;5026373;28;20379;-80
2022/09/02 11:05:55;;;;;;;;;;;22.00;99.90;;;;;;5027058;28;20029;-81
2022/09/02 11:08:24;;;;;;;4.82;1.33;;;22.10;99.90;;;;;;5026628;28;19912;-80
2022/09/02 11:11:06;;;;;;;3.38;1.30;;;22.10;99.90;;;;;;5026707;28;20111;-80
2022/09/02 11:14:09;;;;;;;3.42;1.27;;;22.10;99.90;;;;;;5026238;28;20482;-80
2022/09/02 11:16:47;;;;;;;5.32;1.20;;;22.20;99.90;;;;;;5027444;28;20029;-80
2022/09/02 11:19:57;;;;;;;5.47;1.60;;;22.40;99.90;;;;;;5044738;28;20884;-81
2022/09/02 11:22:44;;;;;;;2.10;1.20;;;22.50;99.90;;;;;;5026810;28;20041;-79
2022/09/02 11:25:33;;;;;;;2.72;1.02;;;22.60;99.90;;;;;;5026208;28;20040;-79
2022/09/02 11:28:31;;;;;;;2.65;1.20;;;22.60;99.90;;;;;;5026457;28;20071;-80
2022/09/02 11:31:05;;;;;;;5.63;1.20;;;22.80;99.90;;;;;;5025203;28;20033;-80
2022/09/02 11:34:10;;;;;;;2.03;1.13;;;23.00;99.90;;;;;;5026443;28;20029;-80
2022/09/02 11:36:40;;;;;;;4.60;1.30;;;23.10;99.90;;;;;;5013766;28;20087;-80
2022/09/02 11:39:31;;;;;;;3.33;1.15;;;23.40;99.90;;;;;;5026750;28;20521;-80
2022/09/02 11:42:15;;;;;;;1.90;1.30;;;23.30;99.90;;;;;;5025622;28;20032;-80
2022/09/02 11:45:16;;;;;;;2.20;1.23;;;23.50;99.90;;;;;;5026117;28;20050;-80
2022/09/02 11:47:53;;;;;;;3.08;1.10;;;23.60;99.90;;;;;;5025435;28;20049;-80
2022/09/02 11:50:41;;;;;;;2.92;1.20;;;23.70;99.90;;;;;;5026286;28;20021;-80
2022/09/02 11:53:23;;;;;;;1.48;1.05;;;23.90;99.90;;;;;;5026461;28;20033;-80
2022/09/02 11:55:57;;;;;;;10.57;1.38;;;24.10;99.90;;;;;;5026404;28;20045;-80
2022/09/02 11:58:34;;;;;;;3.15;1.23;;;24.10;99.90;;;;;;5025150;28;20120;-80
2022/09/02 12:01:14;;;;;;;5.35;1.60;;;24.30;99.90;;;;;;5026346;28;20026;-80
2022/09/02 12:03:49;;;;;;;5.25;1.40;;;24.30;99.60;;;;;;5026144;28;20070;-80
2022/09/02 12:06:18;;;;;;;5.70;1.30;;;24.30;99.90;;;;;;5025785;28;20103;-80
2022/09/02 12:08:43;;;;;;;5.35;1.40;;;24.30;99.80;;;;;;5023926;28;20029;-80
2022/09/02 12:11:40;;;;;;;5.20;1.45;;;24.40;99.90;;;;;;5025373;28;20028;-80
2022/09/02 12:14:26;;;;;;;2.33;1.40;;;24.70;99.90;;;;;;5025739;28;20600;-80
2022/09/02 12:17:06;;;;;;;4.10;1.30;;;24.90;97.80;;;;;;5023765;28;20079;-80
2022/09/02 12:19:39;;;;;;;2.85;1.40;;;25.00;98.00;;;;;;5031183;28;20036;-80
2022/09/02 12:22:16;;;;;;;3.72;1.38;;;24.90;99.20;;;;;;5026048;28;20039;-81
2022/09/02 12:24:55;;;;;;;3.75;1.27;;;25.10;98.50;;;;;;5025457;28;20033;-80
2022/09/02 12:27:28;;;;;;;4.40;1.20;;;25.10;99.90;;;;;;5025739;28;20025;-80
2022/09/02 12:29:55;;;;;;;3.45;1.00;;;25.10;97.90;;;;;;5025544;28;20438;-80
2022/09/02 12:32:49;;;;;;;3.55;1.27;;;25.40;96.90;;;;;;5025296;28;20113;-80
2022/09/02 12:35:41;;;;;;;2.15;1.17;;;25.40;97.50;;;;;;5024738;28;20716;-80
2022/09/02 12:38:09;;;;;;;4.53;1.13;;;25.50;97.20;;;;;;5027763;28;20411;-80
2022/09/02 12:41:04;;;;;;;4.32;1.30;;;25.70;98.20;;;;;;5036715;28;20419;-80
2022/09/02 12:44:08;;;;;;;2.80;1.40;;;25.60;98.00;;;;;;5037073;28;20443;-80
2022/09/02 12:46:43;;;;;;;4.82;1.25;;;25.60;95.90;;;;;;5025500;28;20111;-80
2022/09/02 12:49:14;;;;;;;3.67;1.15;;;25.60;96.10;;;;;;5024956;28;20044;-81
2022/09/02 12:51:58;;;;;;;3.22;1.20;;;25.60;95.60;;;;;;5025567;28;20029;-80
2022/09/02 12:54:37;;;;;;;1.70;1.02;;;25.30;95.70;;;;;;5018197;28;20475;-80
2022/09/02 12:57:03;;;;;;;2.97;1.30;;;25.30;95.10;;;;;;5028802;28;20050;-80
2022/09/02 12:59:38;;;;;;;4.05;1.30;;;25.20;95.50;;;;;;5029591;28;20032;-80
2022/09/02 13:02:22;;;;;;;3.40;1.13;;;24.90;94.70;;;;;;5029298;28;20021;-80
2022/09/02 13:05:16;;;;;;;2.80;1.30;;;24.70;96.20;;;;;;5021943;28;20032;-80
2022/09/02 13:08:28;;;;;;;3.72;1.20;;;24.90;95.90;;;;;;5029238;28;20379;-81